Time;durP1;ratioP1;P1;durP2;ratioP2;P2;SDS_P1;SDS_P2;PMS_P1;PMS_P2;Temp;Humidity;BMP_temperature;BMP_pressure;BME280_temperature;BME280_humidity;BME280_pressure;Samples;Min_cycle;Max_cycle;Signal;HPM_P1;HPM_P2
2021/08/03 00:01:05;;;;;;;15.95;6.15;;;;;;;13.38;100.00;101427.94;5263190;28;20062;-69
2021/08/03 00:03:38;;;;;;;10.25;5.72;;;;;;;13.37;100.00;101427.09;5254110;28;20054;-69
2021/08/03 00:06:12;;;;;;;9.82;5.68;;;;;;;13.36;100.00;101427.28;5265108;28;20024;-69
2021/08/03 00:08:46;;;;;;;9.50;5.07;;;;;;;13.34;100.00;101426.59;5265735;28;20070;-69
2021/08/03 00:11:18;;;;;;;15.57;5.80;;;;;;;13.34;100.00;101426.59;5264224;28;20082;-70
2021/08/03 00:13:49;;;;;;;11.02;5.25;;;;;;;13.30;100.00;101426.06;5265541;28;20016;-69
2021/08/03 00:16:20;;;;;;;9.50;5.40;;;;;;;13.31;100.00;101427.78;5264953;28;20031;-69
2021/08/03 00:18:51;;;;;;;8.60;4.75;;;;;;;13.34;100.00;101421.19;5265459;28;20059;-69
2021/08/03 00:21:21;;;;;;;9.18;5.40;;;;;;;13.35;100.00;101425.56;5264831;28;20102;-69
2021/08/03 00:23:53;;;;;;;11.65;5.40;;;;;;;13.37;100.00;101423.56;5265031;28;20016;-69
2021/08/03 00:26:23;;;;;;;13.32;5.60;;;;;;;13.37;100.00;101426.25;5265378;28;20168;-69
2021/08/03 00:28:55;;;;;;;9.73;5.32;;;;;;;13.38;100.00;101422.56;5264636;28;20020;-68
2021/08/03 00:31:26;;;;;;;12.82;5.90;;;;;;;13.40;100.00;101418.69;5264714;28;20368;-69
2021/08/03 00:33:57;;;;;;;8.20;5.72;;;;;;;13.38;100.00;101423.38;5264727;28;20047;-69
2021/08/03 00:36:29;;;;;;;13.77;5.50;;;;;;;13.45;100.00;101423.53;5264968;28;20020;-69
2021/08/03 00:38:59;;;;;;;14.85;6.50;;;;;;;13.46;100.00;101417.16;5263704;28;20031;-69
2021/08/03 00:41:37;;;;;;;13.27;6.45;;;;;;;13.45;100.00;101410.06;5264480;28;20028;-69
2021/08/03 00:44:08;;;;;;;9.63;5.95;;;;;;;13.36;100.00;101416.50;5264959;28;20391;-69
2021/08/03 00:46:40;;;;;;;14.07;5.75;;;;;;;13.32;100.00;101415.16;5264777;28;20025;-69
2021/08/03 00:49:10;;;;;;;11.13;5.63;;;;;;;13.25;100.00;101411.44;5264036;28;20160;-69
2021/08/03 00:51:41;;;;;;;10.07;5.93;;;;;;;13.19;100.00;101413.78;5264161;28;20041;-69
2021/08/03 00:54:12;;;;;;;15.13;5.63;;;;;;;13.16;100.00;101422.22;5264521;28;20377;-69
2021/08/03 00:56:42;;;;;;;10.20;5.53;;;;;;;13.17;100.00;101410.41;5264751;28;20032;-69
2021/08/03 00:59:13;;;;;;;11.05;6.45;;;;;;;13.19;100.00;101426.41;5263771;28;20635;-69
2021/08/03 01:01:43;;;;;;;14.18;6.13;;;;;;;13.18;100.00;101406.69;5264248;28;20035;-69
2021/08/03 01:04:15;;;;;;;15.10;5.97;;;;;;;13.18;100.00;101405.88;5263788;28;20431;-70
2021/08/03 01:06:59;;;;;;;19.88;5.93;;;;;;;13.18;100.00;101398.63;5264135;28;20102;-69
2021/08/03 01:10:00;;;;;;;16.00;6.40;;;;;;;13.10;100.00;101404.03;5263387;28;20027;-70
2021/08/03 01:12:51;;;;;;;14.02;6.20;;;;;;;13.06;100.00;101413.47;5262615;28;20020;-70
2021/08/03 01:15:43;;;;;;;13.85;6.10;;;;;;;13.05;100.00;101401.00;5264242;28;20035;-70
2021/08/03 01:18:21;;;;;;;11.90;6.03;;;;;;;13.00;100.00;101400.63;5264220;28;20436;-70
2021/08/03 01:21:06;;;;;;;13.45;6.88;;;;;;;13.00;100.00;101405.19;5262567;28;20073;-70
2021/08/03 01:24:06;;;;;;;20.70;8.10;;;;;;;12.96;100.00;101399.31;5264057;28;20080;-70
2021/08/03 01:26:38;;;;;;;12.63;7.43;;;;;;;12.94;100.00;101399.47;5254755;28;20066;-69
2021/08/03 01:29:10;;;;;;;16.60;7.78;;;;;;;12.91;100.00;101398.97;5262564;28;20073;-70
2021/08/03 01:31:48;;;;;;;14.18;7.65;;;;;;;12.87;100.00;101401.16;5263901;28;20097;-70
2021/08/03 01:34:21;;;;;;;17.40;9.13;;;;;;;12.84;100.00;101392.56;5250491;28;20055;-70
2021/08/03 01:36:55;;;;;;;15.18;7.75;;;;;;;12.79;100.00;101398.44;5263660;28;20032;-70
2021/08/03 01:39:31;;;;;;;15.05;7.63;;;;;;;12.77;100.00;101395.09;5262712;28;20495;-70
2021/08/03 01:42:05;;;;;;;15.10;7.25;;;;;;;12.76;100.00;101390.72;5263297;28;20039;-70
2021/08/03 01:44:37;;;;;;;19.15;7.75;;;;;;;12.73;100.00;101400.97;5263660;28;20020;-70
2021/08/03 01:47:09;;;;;;;18.17;7.78;;;;;;;12.70;100.00;101394.06;5263396;28;20468;-70
2021/08/03 01:49:40;;;;;;;17.73;8.20;;;;;;;12.70;100.00;101391.38;5262784;28;20028;-70
2021/08/03 01:52:12;;;;;;;21.13;8.73;;;;;;;12.68;100.00;101399.63;5263192;28;20543;-70
2021/08/03 01:54:46;;;;;;;15.90;7.97;;;;;;;12.68;100.00;101396.94;5263176;28;20463;-70
2021/08/03 01:57:18;;;;;;;;;;;;;;;12.66;100.00;101398.13;5264068;28;20099;-71
2021/08/03 01:59:52;;;;;;;20.80;7.85;;;;;;;12.63;100.00;101412.75;5262642;28;19915;-72
2021/08/03 02:02:27;;;;;;;17.58;8.70;;;;;;;12.62;100.00;101400.28;5262872;28;20442;-72
2021/08/03 02:05:08;;;;;;;20.58;8.68;;;;;;;12.64;100.00;101403.66;5250884;28;20099;-72
2021/08/03 02:07:40;;;;;;;19.15;9.43;;;;;;;12.62;100.00;101405.69;5263393;28;20057;-71
2021/08/03 02:10:12;;;;;;;17.13;8.45;;;;;;;12.60;100.00;101407.72;5251123;28;20024;-71
2021/08/03 02:12:43;;;;;;;17.48;8.75;;;;;;;12.61;100.00;101404.00;5259793;28;20506;-71
2021/08/03 02:15:13;;;;;;;23.70;10.38;;;;;;;12.61;100.00;101405.84;5263209;28;20071;-71
2021/08/03 02:17:45;;;;;;;18.00;8.63;;;;;;;12.60;100.00;101404.16;5263068;28;20032;-71
2021/08/03 02:20:15;;;;;;;20.15;9.98;;;;;;;12.59;100.00;101402.47;5262830;28;20416;-71
2021/08/03 02:22:46;;;;;;;17.05;8.85;;;;;;;12.57;100.00;101408.03;5263171;28;20028;-72
2021/08/03 02:25:17;;;;;;;18.05;8.80;;;;;;;12.56;100.00;101400.13;5262678;28;20051;-71
2021/08/03 02:27:48;;;;;;;21.92;9.48;;;;;;;12.54;100.00;101400.28;5263588;28;20748;-71
2021/08/03 02:30:18;;;;;;;25.23;10.30;;;;;;;12.55;100.00;101399.28;5260400;28;20032;-71
2021/08/03 02:32:51;;;;;;;22.83;10.00;;;;;;;12.56;100.00;101402.81;5249640;28;20039;-71
2021/08/03 02:35:25;;;;;;;18.02;9.20;;;;;;;12.56;100.00;101387.50;5259855;28;20082;-72
2021/08/03 02:38:00;;;;;;;21.10;9.85;;;;;;;12.56;100.00;101394.75;5263051;28;20556;-71
2021/08/03 02:40:31;;;;;;;;;;;;;;;12.58;100.00;101395.41;5261854;28;20109;-71
2021/08/03 02:43:02;;;;;;;17.33;9.07;;;;;;;12.58;100.00;101390.88;5263169;28;19935;-71
2021/08/03 02:45:33;;;;;;;18.38;9.40;;;;;;;12.57;100.00;101389.19;5263287;28;20035;-71
2021/08/03 02:48:12;;;;;;;25.48;10.10;;;;;;;12.57;100.00;101391.88;5262685;28;20020;-71
2021/08/03 02:50:45;;;;;;;23.27;9.57;;;;;;;12.57;100.00;101393.72;5262633;28;20024;-71
2021/08/03 02:53:25;;;;;;;21.40;9.18;;;;;;;12.56;100.00;101384.81;5262567;28;20111;-71
2021/08/03 02:56:00;;;;;;;23.05;10.25;;;;;;;12.55;100.00;101385.84;5262891;28;20028;-71
2021/08/03 02:58:36;;;;;;;28.15;10.55;;;;;;;12.55;100.00;101382.28;5262750;28;20061;-71
2021/08/03 03:01:11;;;;;;;24.05;9.70;;;;;;;12.52;100.00;101380.75;5263124;28;20032;-71
2021/08/03 03:03:46;;;;;;;22.27;10.73;;;;;;;12.51;100.00;101383.63;5266944;28;20434;-71
2021/08/03 03:06:18;;;;;;;;;;;;;;;12.48;100.00;101386.66;5267147;28;20408;-70
2021/08/03 03:08:50;;;;;;;19.08;9.38;;;;;;;12.47;100.00;101383.13;5266859;28;19908;-71
2021/08/03 03:11:25;;;;;;;20.17;10.70;;;;;;;12.48;100.00;101382.09;5265406;28;20460;-71
2021/08/03 03:13:57;;;;;;;;;;;;;;;12.49;100.00;101378.41;5266516;28;20400;-71
2021/08/03 03:16:31;;;;;;;21.80;10.48;;;;;;;12.50;100.00;101377.41;5266535;28;20275;-72
2021/08/03 03:19:04;;;;;;;24.17;11.15;;;;;;;12.58;100.00;101374.72;5265998;28;20074;-72
2021/08/03 03:21:35;;;;;;;24.42;10.18;;;;;;;12.61;100.00;101374.41;5266190;28;20077;-72
2021/08/03 03:24:07;;;;;;;21.05;10.52;;;;;;;12.61;100.00;101360.94;5265921;28;20547;-71
2021/08/03 03:26:40;;;;;;;28.88;11.15;;;;;;;12.58;100.00;101363.09;5266504;28;20399;-72
2021/08/03 03:29:11;;;;;;;24.88;10.35;;;;;;;12.56;100.00;101367.81;5265280;28;20480;-71
2021/08/03 03:31:44;;;;;;;23.80;11.07;;;;;;;12.52;100.00;101364.63;5265656;28;20036;-72
2021/08/03 03:34:16;;;;;;;33.08;12.07;;;;;;;12.50;100.00;101363.09;5265406;28;20097;-71
2021/08/03 03:36:48;;;;;;;23.83;11.00;;;;;;;12.49;100.00;101359.56;5266010;28;20028;-72
2021/08/03 03:39:20;;;;;;;33.35;12.77;;;;;;;12.48;100.00;101357.88;5265487;28;20065;-71
2021/08/03 03:41:55;;;;;;;25.20;12.25;;;;;;;12.48;100.00;101351.66;5265931;28;20032;-71
2021/08/03 03:44:25;;;;;;;28.90;11.33;;;;;;;12.50;100.00;101353.19;5265438;28;20020;-71
2021/08/03 03:47:01;;;;;;;22.58;11.25;;;;;;;12.47;100.00;101352.69;5265742;28;20270;-71
2021/08/03 03:49:44;;;;;;;20.83;9.82;;;;;;;12.50;100.00;101360.41;5265105;28;20036;-71
2021/08/03 03:52:20;;;;;;;27.10;10.80;;;;;;;12.48;100.00;101351.66;5266024;28;20030;-71
2021/08/03 03:54:53;;;;;;;23.98;12.07;;;;;;;12.44;100.00;101351.97;5265008;28;20439;-71
2021/08/03 03:57:26;;;;;;;29.02;13.05;;;;;;;12.46;100.00;101349.16;5265996;28;20028;-71
2021/08/03 03:59:59;;;;;;;28.73;11.80;;;;;;;12.45;100.00;101352.84;5264755;28;20016;-71
2021/08/03 04:02:30;;;;;;;24.65;11.02;;;;;;;12.47;100.00;101349.97;5265071;28;20044;-71
2021/08/03 04:05:02;;;;;;;24.88;10.95;;;;;;;12.46;100.00;101345.63;5265242;28;20027;-71
2021/08/03 04:07:34;;;;;;;27.70;10.98;;;;;;;12.47;100.00;101353.50;5264958;28;20019;-71
2021/08/03 04:10:07;;;;;;;30.77;12.43;;;;;;;12.47;100.00;101347.28;5264852;28;20111;-71
2021/08/03 04:12:38;;;;;;;24.63;12.07;;;;;;;12.44;100.00;101341.22;5265191;28;20120;-71
2021/08/03 04:15:09;;;;;;;27.92;11.20;;;;;;;12.44;100.00;101351.16;5265267;28;20020;-71
2021/08/03 04:17:40;;;;;;;27.35;12.27;;;;;;;12.43;100.00;101346.78;5265078;28;20028;-71
2021/08/03 04:20:11;;;;;;;24.67;11.40;;;;;;;12.43;100.00;101344.09;5264460;28;20451;-71
2021/08/03 04:22:41;;;;;;;23.23;12.05;;;;;;;12.41;100.00;101341.56;5264997;28;20047;-71
2021/08/03 04:25:12;;;;;;;24.50;11.55;;;;;;;12.39;100.00;101343.56;5264923;28;20015;-71
2021/08/03 04:27:43;;;;;;;23.83;10.85;;;;;;;12.40;100.00;101344.44;5265261;28;20028;-71
2021/08/03 04:30:15;;;;;;;26.60;12.70;;;;;;;12.39;100.00;101346.25;5264171;28;20384;-71
2021/08/03 04:32:46;;;;;;;24.70;12.85;;;;;;;12.40;100.00;101339.06;5264827;28;20020;-71
2021/08/03 04:35:16;;;;;;;28.90;12.45;;;;;;;12.41;100.00;101340.72;5264827;28;20024;-71
2021/08/03 04:37:48;;;;;;;30.92;14.07;;;;;;;12.41;100.00;101340.72;5265301;28;20024;-71
2021/08/03 04:40:22;;;;;;;33.30;12.23;;;;;;;12.42;100.00;101345.09;5264369;28;20031;-71
2021/08/03 04:42:52;;;;;;;44.28;14.30;;;;;;;12.47;100.00;101344.59;5264300;28;20397;-72
2021/08/03 04:45:23;;;;;;;29.75;12.93;;;;;;;12.44;100.00;101345.75;5264568;28;20024;-71
2021/08/03 04:47:54;;;;;;;25.42;11.93;;;;;;;12.42;100.00;101343.25;5264781;28;20023;-71
2021/08/03 04:50:27;;;;;;;29.98;12.80;;;;;;;12.44;100.00;101343.06;5263948;28;20020;-71
2021/08/03 04:52:57;;;;;;;31.35;13.85;;;;;;;12.44;100.00;101335.00;5264010;28;20530;-71
2021/08/03 04:55:28;;;;;;;27.90;12.60;;;;;;;12.47;100.00;101342.75;5264218;28;20024;-71
2021/08/03 04:57:58;;;;;;;30.35;12.30;;;;;;;12.48;100.00;101335.50;5264380;28;20051;-71
2021/08/03 05:00:29;;;;;;;38.20;13.90;;;;;;;12.49;100.00;101337.19;5263404;28;20027;-71
2021/08/03 05:02:59;;;;;;;37.60;14.70;;;;;;;12.53;100.00;101339.38;5264264;28;20016;-71
2021/08/03 05:05:30;;;;;;;37.70;13.40;;;;;;;12.55;100.00;101332.00;5264166;28;20020;-71
2021/08/03 05:08:01;;;;;;;32.20;12.90;;;;;;;12.61;100.00;101334.00;5264204;28;20028;-71
2021/08/03 05:10:31;;;;;;;27.00;13.02;;;;;;;12.68;100.00;101329.63;5263597;28;20023;-71
2021/08/03 05:13:03;;;;;;;33.80;14.00;;;;;;;12.64;100.00;101336.34;5263792;28;20578;-71
2021/08/03 05:15:33;;;;;;;25.92;12.35;;;;;;;12.64;100.00;101338.22;5263802;28;20024;-71
2021/08/03 05:18:04;;;;;;;25.48;12.77;;;;;;;12.63;100.00;101337.38;5264476;28;20031;-72
2021/08/03 05:20:34;;;;;;;32.28;12.55;;;;;;;12.65;100.00;101339.88;5263011;28;20020;-72
2021/08/03 05:23:05;;;;;;;35.97;14.27;;;;;;;12.65;100.00;101337.19;5264082;28;20031;-72
2021/08/03 05:25:35;;;;;;;32.97;13.82;;;;;;;12.66;100.00;101328.97;5263739;28;20023;-72
2021/08/03 05:28:08;;;;;;;33.90;13.07;;;;;;;12.68;100.00;101329.63;5264420;28;20034;-72
2021/08/03 05:30:38;;;;;;;32.47;13.45;;;;;;;12.74;100.00;101329.97;5262815;28;20112;-72
2021/08/03 05:33:09;;;;;;;24.83;13.07;;;;;;;12.74;100.00;101330.81;5263571;28;20710;-72
2021/08/03 05:35:41;;;;;;;24.55;10.75;;;;;;;12.79;100.00;101327.59;5263595;28;20024;-72
2021/08/03 05:38:11;;;;;;;27.75;12.48;;;;;;;12.86;100.00;101334.03;5264027;28;20768;-72
2021/08/03 05:40:46;;;;;;;32.80;12.43;;;;;;;12.91;100.00;101331.66;5261960;28;20020;-72
2021/08/03 05:43:16;;;;;;;27.63;12.57;;;;;;;12.96;100.00;101330.13;5261763;28;20023;-72
2021/08/03 05:45:47;;;;;;;31.13;12.23;;;;;;;13.04;100.00;101326.56;5263904;28;20028;-72
2021/08/03 05:48:17;;;;;;;29.42;12.68;;;;;;;13.11;100.00;101322.19;5263597;28;20027;-72
2021/08/03 05:50:48;;;;;;;27.70;12.40;;;;;;;13.19;100.00;101324.88;5263357;28;20020;-72
2021/08/03 05:53:18;;;;;;;28.30;12.02;;;;;;;13.34;100.00;101329.56;5263249;28;20487;-72
2021/08/03 05:55:49;;;;;;;27.83;13.63;;;;;;;13.34;100.00;101332.28;5262957;28;20027;-72
2021/08/03 05:58:19;;;;;;;28.10;13.13;;;;;;;13.39;100.00;101327.22;5263567;28;20024;-72
2021/08/03 06:00:50;;;;;;;25.95;11.70;;;;;;;13.43;100.00;101329.38;5262475;28;20059;-72
2021/08/03 06:03:20;;;;;;;23.02;11.43;;;;;;;13.48;100.00;101329.69;5263424;28;20107;-72
2021/08/03 06:05:51;;;;;;;24.15;12.40;;;;;;;13.54;100.00;101332.72;5263079;28;20372;-72
2021/08/03 06:08:25;;;;;;;22.83;11.80;;;;;;;13.62;100.00;101320.06;5263113;28;20312;-72
2021/08/03 06:10:56;;;;;;;25.83;11.85;;;;;;;13.66;100.00;101316.00;5262849;28;20024;-72
2021/08/03 06:13:28;;;;;;;28.23;13.25;;;;;;;13.73;100.00;101316.97;5263011;28;20097;-72
2021/08/03 06:16:02;;;;;;;31.00;12.23;;;;;;;13.84;100.00;101325.69;5263268;28;20024;-72
2021/08/03 06:18:37;;;;;;;23.75;11.35;;;;;;;13.91;100.00;101324.00;5263240;28;20490;-72
2021/08/03 06:21:08;;;;;;;21.33;11.05;;;;;;;13.96;100.00;101327.81;5249584;28;20035;-72
2021/08/03 06:23:43;;;;;;;28.00;11.60;;;;;;;13.93;100.00;101328.16;5263051;28;20031;-72
2021/08/03 06:26:17;;;;;;;29.40;11.77;;;;;;;13.96;100.00;101332.38;5263167;28;20113;-72
2021/08/03 06:28:51;;;;;;;22.20;11.65;;;;;;;13.94;100.00;101324.44;5262900;28;20123;-72
2021/08/03 06:31:26;;;;;;;22.92;10.88;;;;;;;13.95;100.00;101325.28;5262081;28;20033;-72
2021/08/03 06:33:57;;;;;;;25.45;12.40;;;;;;;13.97;100.00;101326.81;5262782;28;20048;-72
2021/08/03 06:36:27;;;;;;;25.92;10.93;;;;;;;14.00;100.00;101328.28;5265167;28;20062;-72
2021/08/03 06:38:58;;;;;;;20.90;11.27;;;;;;;14.00;100.00;101325.59;5266912;28;20560;-72
2021/08/03 06:41:32;;;;;;;23.63;11.68;;;;;;;14.07;100.00;101325.75;5264503;28;20020;-72
2021/08/03 06:44:21;;;;;;;19.52;10.15;;;;;;;14.11;100.00;101327.09;5255524;28;20150;-72
2021/08/03 06:46:56;;;;;;;19.10;9.65;;;;;;;14.11;100.00;101327.91;5267051;28;20028;-72
2021/08/03 06:49:31;;;;;;;20.03;9.17;;;;;;;14.28;100.00;101335.91;5266393;28;20020;-72
2021/08/03 06:52:02;;;;;;;23.23;10.82;;;;;;;14.27;100.00;101339.63;5253743;28;20032;-72
2021/08/03 06:54:34;;;;;;;22.13;9.43;;;;;;;14.23;100.00;101325.66;5266510;28;20542;-72
2021/08/03 06:57:11;;;;;;;19.02;9.40;;;;;;;14.29;100.00;101332.19;5267180;28;20099;-72
2021/08/03 06:59:48;;;;;;;19.50;9.32;;;;;;;14.27;100.00;101324.28;5265884;28;20036;-72
2021/08/03 07:02:29;;;;;;;20.50;10.10;;;;;;;14.39;100.00;101335.47;5266352;28;20084;-72
2021/08/03 07:05:06;;;;;;;20.80;10.50;;;;;;;14.46;100.00;101331.06;5253198;28;20020;-72
2021/08/03 07:07:36;;;;;;;17.38;8.57;;;;;;;14.59;100.00;101325.06;5266673;28;20493;-72
2021/08/03 07:10:07;;;;;;;24.42;9.95;;;;;;;14.63;100.00;101326.41;5265756;28;20107;-72
2021/08/03 07:12:43;;;;;;;23.30;10.93;;;;;;;14.55;100.00;101332.69;5266098;28;20028;-72
2021/08/03 07:15:13;;;;;;;;;;;;;;;14.59;100.00;101333.19;5266921;28;20032;-72
2021/08/03 07:17:46;;;;;;;26.15;10.15;;;;;;;14.68;100.00;101330.22;5266813;28;20422;-72
2021/08/03 07:20:17;;;;;;;21.02;10.15;;;;;;;14.68;100.00;101324.84;5265836;28;20043;-72
2021/08/03 07:22:48;;;;;;;21.27;10.02;;;;;;;14.75;100.00;101331.19;5266222;28;20031;-72
2021/08/03 07:25:19;;;;;;;22.17;10.95;;;;;;;14.80;100.00;101327.94;5265432;28;20023;-72
2021/08/03 07:27:49;;;;;;;22.23;10.80;;;;;;;14.82;100.00;101333.16;5266439;28;20084;-72
2021/08/03 07:30:20;;;;;;;23.52;10.90;;;;;;;14.85;100.00;101330.09;5265142;28;20558;-72
2021/08/03 07:32:50;;;;;;;20.75;11.18;;;;;;;14.89;100.00;101334.09;5266313;28;20081;-72
2021/08/03 07:35:21;;;;;;;23.95;11.93;;;;;;;14.90;100.00;101324.97;5265857;28;20053;-72
2021/08/03 07:37:51;;;;;;;21.55;10.20;;;;;;;14.98;100.00;101325.75;5265703;28;20098;-72
2021/08/03 07:40:22;;;;;;;24.35;12.07;;;;;;;14.96;100.00;101326.94;5265359;28;20028;-72
2021/08/03 07:42:52;;;;;;;24.98;10.77;;;;;;;15.00;100.00;101330.97;5266123;28;20048;-72
2021/08/03 07:45:23;;;;;;;26.08;10.90;;;;;;;15.04;100.00;101332.28;5265797;28;20020;-72
2021/08/03 07:47:53;;;;;;;23.40;10.00;;;;;;;15.06;100.00;101334.78;5265579;28;20389;-72
2021/08/03 07:50:26;;;;;;;22.10;11.48;;;;;;;15.18;100.00;101334.16;5264501;28;20016;-72
2021/08/03 07:52:58;;;;;;;23.15;11.02;;;;;;;15.20;100.00;101339.38;5265786;28;20089;-72
2021/08/03 07:55:28;;;;;;;31.65;11.00;;;;;;;15.32;100.00;101328.97;5265595;28;20382;-72
2021/08/03 07:57:59;;;;;;;19.75;10.15;;;;;;;15.39;100.00;101333.44;5265837;28;20036;-72
2021/08/03 08:00:31;;;;;;;19.15;10.50;;;;;;;15.43;100.00;101325.78;5265044;28;20418;-72
2021/08/03 08:03:01;;;;;;;22.67;10.38;;;;;;;15.61;100.00;101326.25;5265163;28;20028;-72
2021/08/03 08:05:32;;;;;;;19.13;9.77;;;;;;;15.72;100.00;101323.13;5265043;28;20023;-72
2021/08/03 08:08:05;;;;;;;21.77;9.27;;;;;;;15.94;100.00;101326.69;5265826;28;20042;-72
2021/08/03 08:10:36;;;;;;;21.08;8.93;;;;;;;16.27;100.00;101318.13;5264573;28;20028;-72
2021/08/03 08:13:06;;;;;;;17.52;8.85;;;;;;;16.29;100.00;101326.88;5264688;28;20084;-72
2021/08/03 08:15:37;;;;;;;18.98;8.65;;;;;;;16.31;100.00;101331.09;5264797;28;20458;-72
2021/08/03 08:18:08;;;;;;;18.83;9.02;;;;;;;16.52;100.00;101332.13;5265422;28;20035;-72
2021/08/03 08:20:42;;;;;;;13.10;7.35;;;;;;;16.73;100.00;101328.59;5264388;28;20085;-72
2021/08/03 08:23:15;;;;;;;13.95;7.28;;;;;;;17.12;100.00;101328.09;5265132;28;20077;-72
2021/08/03 08:25:46;;;;;;;14.48;6.55;;;;;;;17.29;100.00;101326.72;5264318;28;20016;-72
2021/08/03 08:28:16;;;;;;;13.65;7.60;;;;;;;17.27;100.00;101330.66;5265493;28;20026;-72
2021/08/03 08:30:47;;;;;;;13.13;7.57;;;;;;;17.30;100.00;101341.97;5264285;28;20024;-72
2021/08/03 08:33:17;;;;;;;15.55;7.53;;;;;;;17.38;100.00;101343.69;5265003;28;20111;-72
2021/08/03 08:35:48;;;;;;;14.95;7.30;;;;;;;17.47;100.00;101338.94;5264729;28;20024;-72
2021/08/03 08:38:19;;;;;;;12.88;8.13;;;;;;;17.41;100.00;101335.13;5264269;28;20027;-72
2021/08/03 08:40:52;;;;;;;23.67;8.93;;;;;;;17.46;100.00;101343.53;5264027;28;20495;-72
2021/08/03 08:43:24;;;;;;;16.98;8.02;;;;;;;17.46;100.00;101350.81;5264793;28;20020;-72
2021/08/03 08:45:55;;;;;;;17.00;7.78;;;;;;;17.48;100.00;101348.75;5264631;28;20027;-72
2021/08/03 08:48:26;;;;;;;13.27;7.85;;;;;;;17.39;100.00;101356.22;5263551;28;20032;-72
2021/08/03 08:50:58;;;;;;;15.30;7.40;;;;;;;17.27;100.00;101363.22;5263628;28;20024;-72
2021/08/03 08:53:29;;;;;;;11.80;6.57;;;;;;;17.06;100.00;101353.25;5264092;28;20127;-71
2021/08/03 08:56:01;;;;;;;17.48;8.50;;;;;;;17.11;100.00;101363.50;5263375;28;20024;-71
2021/08/03 08:58:34;;;;;;;16.60;8.88;;;;;;;17.07;100.00;101357.66;5263990;28;20038;-71
2021/08/03 09:01:05;;;;;;;17.70;8.57;;;;;;;17.03;100.00;101364.50;5263345;28;20376;-72
2021/08/03 09:03:35;;;;;;;18.52;8.60;;;;;;;17.11;100.00;101358.91;5262928;28;20008;-72
2021/08/03 09:06:06;;;;;;;14.32;7.35;;;;;;;17.33;100.00;101357.84;5263750;28;20024;-72
2021/08/03 09:08:40;;;;;;;24.35;9.02;;;;;;;17.46;100.00;101356.25;5264225;28;20447;-72
2021/08/03 09:11:14;;;;;;;16.80;8.65;;;;;;;17.48;100.00;101359.63;5263212;28;20028;-71
2021/08/03 09:14:00;;;;;;;22.67;9.05;;;;;;;17.53;100.00;101346.28;5263241;28;20039;-72
2021/08/03 09:16:46;;;;;;;17.05;7.28;;;;;;;17.70;100.00;101353.06;5264472;28;20484;-71
2021/08/03 09:19:35;;;;;;;18.10;7.45;;;;;;;17.94;100.00;101353.63;5263467;28;20397;-72
2021/08/03 09:22:22;;;;;;;19.13;7.30;;;;;;;18.08;100.00;101355.34;5263159;28;20030;-72
2021/08/03 09:25:12;;;;;;;14.35;7.25;;;;;;;18.19;100.00;101354.75;5263773;28;20032;-72
2021/08/03 09:27:47;;;;;;;12.25;6.00;;;;;;;18.49;100.00;101360.69;5264556;28;20020;-72
2021/08/03 09:30:17;;;;;;;11.43;7.57;;;;;;;18.66;100.00;101352.97;5262590;28;20047;-71
2021/08/03 09:32:48;;;;;;;11.68;6.57;;;;;;;18.60;100.00;101353.81;5263896;28;20070;-72
2021/08/03 09:35:20;;;;;;;15.20;5.78;;;;;;;18.83;100.00;101353.44;5263753;28;20106;-71
2021/08/03 09:37:52;;;;;;;10.90;5.57;;;;;;;18.79;100.00;101346.75;5263785;28;20020;-71
2021/08/03 09:40:28;;;;;;;8.02;3.97;;;;;;;19.05;100.00;101346.75;5263068;28;20032;-71
2021/08/03 09:43:07;;;;;;;7.53;4.70;;;;;;;19.14;100.00;101344.66;5263138;28;20031;-71
2021/08/03 09:45:44;;;;;;;10.88;4.72;;;;;;;19.09;100.00;101347.16;5263939;28;20361;-71
2021/08/03 09:48:16;;;;;;;13.07;5.68;;;;;;;18.94;100.00;101352.00;5263487;28;20062;-70
2021/08/03 09:51:01;;;;;;;11.82;5.97;;;;;;;19.20;100.00;101351.97;5263192;28;20052;-71
2021/08/03 09:53:38;;;;;;;9.38;5.40;;;;;;;19.41;100.00;101350.88;5262935;28;20024;-71
2021/08/03 09:56:12;;;;;;;11.98;5.25;;;;;;;19.25;100.00;101341.28;5263648;28;20399;-71
2021/08/03 09:58:51;;;;;;;14.20;5.22;;;;;;;19.37;100.00;101346.91;5263955;28;20020;-71
2021/08/03 10:01:24;;;;;;;10.57;4.80;;;;;;;19.65;100.00;101349.41;5262317;28;20028;-70
2021/08/03 10:03:59;;;;;;;14.00;6.65;;;;;;;19.25;100.00;101344.00;5263039;28;20027;-70
2021/08/03 10:06:30;;;;;;;11.73;5.88;;;;;;;19.46;100.00;101339.38;5263364;28;20027;-70
2021/08/03 10:09:02;;;;;;;13.07;5.80;;;;;;;19.59;100.00;101342.06;5263050;28;20020;-70
2021/08/03 10:11:33;;;;;;;10.60;5.28;;;;;;;19.75;100.00;101335.34;5273809;28;20031;-69
2021/08/03 10:14:05;;;;;;;9.30;5.47;;;;;;;20.08;100.00;101340.63;5271990;27;20020;-71
2021/08/03 10:16:35;;;;;;;12.15;5.45;;;;;;;20.01;100.00;101334.38;5268030;28;20511;-70
2021/08/03 10:19:06;;;;;;;8.02;3.53;;;;;;;19.99;100.00;101340.06;5266757;28;20060;-71
2021/08/03 10:21:45;;;;;;;7.57;3.10;;;;;;;20.34;100.00;101340.50;5267795;28;20107;-71
2021/08/03 10:24:22;;;;;;;8.27;3.33;;;;;;;20.32;100.00;101334.41;5267653;28;20066;-70
2021/08/03 10:27:09;;;;;;;10.18;5.60;;;;;;;20.18;100.00;101335.53;5267375;28;20024;-70
2021/08/03 10:29:48;;;;;;;6.63;3.75;;;;;;;20.58;100.00;101332.59;5266990;28;20034;-70
2021/08/03 10:32:39;;;;;;;6.70;4.18;;;;;;;21.12;100.00;101326.50;5267158;28;20032;-70
2021/08/03 10:35:13;;;;;;;12.85;4.57;;;;;;;21.01;100.00;101329.97;5266957;28;20477;-70
2021/08/03 10:37:59;;;;;;;10.55;3.65;;;;;;;21.17;100.00;101320.38;5267386;28;20024;-69
2021/08/03 10:40:45;;;;;;;;;;;;;;;20.93;100.00;101328.38;5267167;28;20032;-69
2021/08/03 10:43:21;;;;;;;10.05;4.95;;;;;;;20.98;100.00;101324.94;5266826;28;20273;-70
2021/08/03 10:46:06;;;;;;;14.70;5.43;;;;;;;21.02;100.00;101320.72;5267277;28;20089;-70
2021/08/03 10:48:37;;;;;;;9.70;4.53;;;;;;;21.42;100.00;101320.34;5267214;28;20027;-69
2021/08/03 10:51:16;;;;;;;9.13;5.13;;;;;;;21.63;100.00;101314.44;5266234;28;20031;-69
2021/08/03 10:53:51;;;;;;;11.98;5.47;;;;;;;21.53;100.00;101308.66;5266103;28;20039;-69
2021/08/03 10:56:21;;;;;;;15.88;5.95;;;;;;;21.64;100.00;101305.19;5267063;28;20024;-70
2021/08/03 10:59:29;;;;;;;8.98;5.32;;;;;;;21.36;100.00;101304.88;5267250;28;20031;-69
2021/08/03 11:02:01;;;;;;;9.63;4.93;;;;;;;21.52;100.00;101300.72;5255582;28;20032;-67
2021/08/03 11:04:40;;;;;;;10.07;5.30;;;;;;;21.55;100.00;101294.81;5266494;28;20428;-67
2021/08/03 11:07:27;;;;;;;11.75;5.53;;;;;;;21.24;100.00;101302.06;5266521;28;20020;-67
2021/08/03 11:10:00;;;;;;;7.28;4.82;;;;;;;21.38;100.00;101291.84;5265890;28;20385;-67
2021/08/03 11:12:33;;;;;;;13.07;4.85;;;;;;;21.55;100.00;101292.09;5265940;28;20392;-67
2021/08/03 11:15:21;;;;;;;12.63;5.75;;;;;;;21.44;100.00;101288.22;5266533;28;20437;-67
2021/08/03 11:17:57;;;;;;;10.65;5.32;;;;;;;21.27;100.00;101296.13;5266572;28;20572;-67
2021/08/03 11:20:33;;;;;;;16.17;5.93;;;;;;;21.34;100.00;101290.66;5265632;28;20031;-67
2021/08/03 11:23:07;;;;;;;16.17;6.80;;;;;;;21.12;100.00;101293.75;5265131;28;20106;-67
2021/08/03 11:25:38;;;;;;;9.10;5.97;;;;;;;21.15;100.00;101287.03;5266327;28;20020;-67
2021/08/03 11:28:11;;;;;;;11.63;6.35;;;;;;;21.34;100.00;101285.19;5266361;28;20035;-67
2021/08/03 11:30:45;;;;;;;9.52;5.50;;;;;;;21.31;100.00;101283.72;5265459;28;20031;-67
2021/08/03 11:33:19;;;;;;;12.80;6.00;;;;;;;21.21;100.00;101281.50;5265384;28;20032;-67
2021/08/03 11:35:49;;;;;;;11.45;5.50;;;;;;;21.50;100.00;101278.28;5266333;28;20480;-67
2021/08/03 11:38:20;;;;;;;7.55;4.88;;;;;;;21.53;100.00;101273.19;5266019;28;20020;-67